createdAt,value
2023-02-28T00:01:28.409Z,100997.38
2023-02-28T00:04:01.388Z,101000.84
2023-02-28T00:06:28.836Z,100991.28
2023-02-28T00:08:56.765Z,100992.13
2023-02-28T00:11:24.433Z,100999.97
2023-02-28T00:13:52.032Z,101001.75
2023-02-28T00:16:22.191Z,101010.47
2023-02-28T00:18:50.026Z,101003.50
2023-02-28T00:21:18.860Z,101005.22
2023-02-28T00:23:46.689Z,101004.34
2023-02-28T00:26:15.427Z,101013.06
2023-02-28T00:28:43.530Z,101018.28
2023-02-28T00:31:11.323Z,101017.41
2023-02-28T00:33:38.780Z,101021.78
2023-02-28T00:36:08.580Z,101020.91
2023-02-28T00:38:38.228Z,101028.75
2023-02-28T00:41:06.026Z,101025.25
2023-02-28T00:43:35.448Z,101022.66
2023-02-28T00:46:03.804Z,101021.78
2023-02-28T00:48:31.810Z,101033.13
2023-02-28T00:50:59.320Z,101024.38
2023-02-28T00:53:27.280Z,101026.16
2023-02-28T00:55:54.781Z,101027.03
2023-02-28T00:58:22.473Z,101027.00
2023-02-28T01:00:50.561Z,101026.13
2023-02-28T01:03:19.015Z,101027.91
2023-02-28T01:05:47.408Z,101035.75
2023-02-28T01:08:15.882Z,101032.25
2023-02-28T01:10:43.744Z,101027.00
2023-02-28T01:13:12.189Z,101025.28
2023-02-28T01:15:43.532Z,101020.94
2023-02-28T01:18:12.036Z,101026.16
2023-02-28T01:20:39.734Z,101028.75
2023-02-28T01:23:07.310Z,101026.16
2023-02-28T01:25:36.495Z,101027.88
2023-02-28T01:28:06.848Z,101025.28
2023-02-28T01:30:36.782Z,101028.75
2023-02-28T01:33:04.419Z,101029.63
2023-02-28T01:35:36.130Z,101027.00
2023-02-28T01:38:20.499Z,101023.53
2023-02-28T01:40:49.067Z,101022.66
2023-02-28T01:43:26.856Z,101020.91
2023-02-28T01:45:57.632Z,101020.03
2023-02-28T01:48:32.636Z,101020.91
2023-02-28T01:51:06.240Z,101014.78
2023-02-28T01:53:37.486Z,101018.31
2023-02-28T01:56:07.248Z,101011.31
2023-02-28T01:58:35.486Z,101020.94
2023-02-28T02:01:04.040Z,101011.31
2023-02-28T02:03:32.348Z,101018.28
2023-02-28T02:05:59.725Z,101018.28
2023-02-28T02:08:29.403Z,101014.78
2023-02-28T02:10:59.561Z,101010.41
2023-02-28T02:14:01.302Z,101012.16
2023-02-28T02:16:37.860Z,101002.56
2023-02-28T02:19:15.655Z,101006.91
2023-02-28T02:22:03.740Z,101013.03
2023-02-28T02:24:50.494Z,101013.03
2023-02-28T02:27:19.304Z,101021.75
2023-02-28T02:30:23.422Z,101014.75
2023-02-28T02:33:30.130Z,101026.06
2023-02-28T02:36:28.844Z,101011.31
2023-02-28T02:38:56.435Z,101018.28
2023-02-28T02:41:39.202Z,101017.41
2023-02-28T02:44:16.035Z,101008.69
2023-02-28T02:46:48.684Z,101011.31
2023-02-28T02:49:21.480Z,101013.00
2023-02-28T02:51:49.512Z,101009.47
2023-02-28T02:54:32.818Z,101011.31
2023-02-28T02:57:12.932Z,101013.91
2023-02-28T02:59:43.630Z,101016.53
2023-02-28T03:02:14.033Z,101014.75
2023-02-28T03:04:44.921Z,101017.41
2023-02-28T03:07:14.381Z,101022.66
2023-02-28T03:09:42.394Z,101020.88
2023-02-28T03:12:13.304Z,101022.69
2023-02-28T03:14:58.768Z,101023.53
2023-02-28T03:18:05.161Z,101029.59
2023-02-28T03:20:35.497Z,101035.72
2023-02-28T03:23:12.113Z,101027.03
2023-02-28T03:25:45.223Z,101028.78
2023-02-28T03:28:34.186Z,101027.03
2023-02-28T03:31:11.132Z,101026.13
2023-02-28T03:34:06.019Z,101030.50
2023-02-28T03:36:46.829Z,101027.00
2023-02-28T03:39:24.702Z,101030.50
2023-02-28T03:42:23.464Z,101027.88
2023-02-28T03:44:58.682Z,101020.91
2023-02-28T03:47:40.641Z,101025.28
2023-02-28T03:50:08.736Z,101033.13
2023-02-28T03:52:39.590Z,101028.75
2023-02-28T03:55:11.188Z,101027.03
2023-02-28T03:57:44.861Z,101031.38
2023-02-28T04:00:29.402Z,101026.13
2023-02-28T04:02:57.506Z,101027.00
2023-02-28T04:05:25.220Z,101020.03
2023-02-28T04:07:52.785Z,101031.31
2023-02-28T04:10:20.867Z,101024.31
2023-02-28T04:12:48.368Z,101023.47
2023-02-28T04:15:16.073Z,101022.53
2023-02-28T04:17:43.964Z,101020.88
2023-02-28T04:20:12.668Z,101020.00
2023-02-28T04:22:40.132Z,101022.63
2023-02-28T04:25:08.451Z,101021.78
2023-02-28T04:27:36.091Z,101017.41
2023-02-28T04:30:03.989Z,101018.28
2023-02-28T04:32:31.724Z,101025.25
2023-02-28T04:34:59.293Z,101017.41
2023-02-28T04:37:29.804Z,101020.03
2023-02-28T04:39:57.570Z,101017.41
2023-02-28T04:42:24.967Z,101006.09
2023-02-28T04:44:52.392Z,101009.56
2023-02-28T04:47:20.204Z,101018.28
2023-02-28T04:49:47.806Z,101017.44
2023-02-28T04:52:15.291Z,101015.66
2023-02-28T04:54:42.949Z,101025.28
2023-02-28T04:57:11.325Z,101021.78
2023-02-28T04:59:38.812Z,101018.28
2023-02-28T05:02:08.188Z,101009.56
2023-02-28T05:04:35.896Z,101013.91
2023-02-28T05:07:04.222Z,101013.03
2023-02-28T05:09:33.934Z,101013.06
2023-02-28T05:12:01.383Z,101013.06
2023-02-28T05:14:28.873Z,101014.81
2023-02-28T05:16:56.598Z,101020.03
2023-02-28T05:19:24.027Z,101014.81
2023-02-28T05:21:53.826Z,101011.25
2023-02-28T05:24:23.934Z,101013.00
2023-02-28T05:26:54.174Z,101019.16
2023-02-28T05:29:26.417Z,101027.00
2023-02-28T05:31:54.152Z,101025.28
2023-02-28T05:34:21.971Z,101027.00
2023-02-28T05:36:49.494Z,101040.09
2023-02-28T05:39:16.903Z,101031.38
2023-02-28T05:41:45.043Z,101033.09
2023-02-28T05:44:13.531Z,101036.63
2023-02-28T05:46:41.227Z,101039.22
2023-02-28T05:49:09.197Z,101040.97
2023-02-28T05:51:37.435Z,101039.22
2023-02-28T05:54:05.056Z,101049.69
2023-02-28T05:56:33.393Z,101049.66
2023-02-28T05:59:00.851Z,101052.31
2023-02-28T06:01:40.484Z,101053.16
2023-02-28T06:04:19.450Z,101047.91
2023-02-28T06:06:50.840Z,101056.66
2023-02-28T06:09:21.982Z,101042.62
2023-02-28T06:11:49.379Z,101043.44
2023-02-28T06:14:18.925Z,101047.78
2023-02-28T06:16:46.794Z,101051.25
2023-02-28T06:19:14.637Z,101052.12
2023-02-28T06:21:42.366Z,101049.53
2023-02-28T06:24:10.447Z,101053.00
2023-02-28T06:26:37.885Z,101051.31
2023-02-28T06:29:05.303Z,101060.94
2023-02-28T06:31:33.579Z,101054.84
2023-02-28T06:34:01.170Z,101063.59
2023-02-28T06:36:28.738Z,101063.50
2023-02-28T06:38:57.130Z,101064.41
2023-02-28T06:41:26.461Z,101065.16
2023-02-28T06:43:54.677Z,101079.22
2023-02-28T06:46:22.827Z,101073.03
2023-02-28T06:48:50.678Z,101073.03
2023-02-28T06:51:21.436Z,101072.16
2023-02-28T06:53:49.568Z,101071.37
2023-02-28T06:56:18.118Z,101074.03
2023-02-28T06:58:50.859Z,101076.59
2023-02-28T07:01:20.090Z,101075.66
2023-02-28T07:03:47.951Z,101069.56
2023-02-28T07:06:15.419Z,101071.44
2023-02-28T07:08:43.320Z,101081.09
2023-02-28T07:11:10.774Z,101084.53
2023-02-28T07:13:38.212Z,101084.50
2023-02-28T07:16:08.871Z,101083.53
2023-02-28T07:18:37.063Z,101087.84
2023-02-28T07:21:06.054Z,101084.31
2023-02-28T07:23:33.800Z,101085.25
2023-02-28T07:26:01.331Z,101089.62
2023-02-28T07:28:28.965Z,101096.56
2023-02-28T07:30:56.926Z,101092.69
2023-02-28T07:33:25.141Z,101092.22
2023-02-28T07:35:52.871Z,101099.97
2023-02-28T07:38:20.744Z,101102.69
2023-02-28T07:40:48.348Z,101101.91
2023-02-28T07:43:15.862Z,101107.97
2023-02-28T07:45:43.613Z,101103.53
2023-02-28T07:48:11.177Z,101100.72
2023-02-28T07:50:38.877Z,101103.47
2023-02-28T07:53:06.779Z,101101.87
2023-02-28T07:58:13.551Z,101105.09
2023-02-28T08:00:41.471Z,101105.09
2023-02-28T08:03:13.503Z,101100.97
2023-02-28T08:05:41.549Z,101101.63
2023-02-28T08:08:09.611Z,101103.47
2023-02-28T08:10:37.792Z,101102.91
2023-02-28T08:13:05.343Z,101106.38
2023-02-28T08:15:33.245Z,101100.19
2023-02-28T08:18:00.951Z,101106.34
2023-02-28T08:20:28.519Z,101104.63
2023-02-28T08:22:56.153Z,101103.72
2023-02-28T08:25:23.481Z,101102.75
2023-02-28T08:27:52.987Z,101103.72
2023-02-28T08:30:20.707Z,101097.56
2023-02-28T08:32:48.188Z,101106.28
2023-02-28T08:35:15.757Z,101109.72
2023-02-28T08:37:43.743Z,101105.31
2023-02-28T08:40:11.944Z,101099.09
2023-02-28T08:42:39.323Z,101094.72
2023-02-28T08:45:07.490Z,101107.91
2023-02-28T08:47:35.319Z,101093.81
2023-02-28T08:50:02.736Z,101099.97
2023-02-28T08:52:30.632Z,101106.22
2023-02-28T08:54:57.982Z,101098.25
2023-02-28T08:57:27.285Z,101082.88
2023-02-28T08:59:55.114Z,101100.97
2023-02-28T09:02:22.547Z,101098.31
2023-02-28T09:04:50.123Z,101100.00
2023-02-28T09:07:17.841Z,101104.41
2023-02-28T09:09:55.142Z,101096.38
2023-02-28T09:12:24.411Z,101098.88
2023-02-28T09:14:52.628Z,101098.00
2023-02-28T09:17:20.633Z,101094.75
2023-02-28T09:19:51.407Z,101086.25
2023-02-28T09:22:19.042Z,101085.28
2023-02-28T09:24:46.443Z,101079.94
2023-02-28T09:27:14.409Z,101082.00
2023-02-28T09:29:41.970Z,101083.75
2023-02-28T09:32:09.785Z,101086.50
2023-02-28T09:34:38.356Z,101093.28
2023-02-28T09:37:05.804Z,101091.63
2023-02-28T09:39:33.243Z,101093.41
2023-02-28T09:42:03.069Z,101096.56
2023-02-28T09:44:36.625Z,101089.22
2023-02-28T09:47:20.227Z,101095.47
2023-02-28T09:49:50.246Z,101092.88
2023-02-28T09:52:20.599Z,101088.44
2023-02-28T09:54:48.395Z,101088.75
2023-02-28T09:57:22.581Z,101087.69
2023-02-28T10:00:02.423Z,101086.97
2023-02-28T10:03:02.449Z,101083.12
2023-02-28T10:05:35.508Z,101077.53
2023-02-28T10:08:17.144Z,101081.25
2023-02-28T10:10:50.605Z,101067.91
2023-02-28T10:13:26.570Z,101069.22
2023-02-28T10:16:02.326Z,101071.09
2023-02-28T10:18:39.672Z,101067.81
2023-02-28T10:21:09.903Z,101072.88
2023-02-28T10:23:38.541Z,101062.56
2023-02-28T10:26:18.107Z,101061.09
2023-02-28T10:28:46.021Z,101062.06
2023-02-28T10:31:17.872Z,101067.94
2023-02-28T10:33:46.419Z,101061.44
2023-02-28T10:36:19.879Z,101067.81
2023-02-28T10:38:48.525Z,101059.78
2023-02-28T10:41:29.862Z,101062.62
2023-02-28T10:44:30.297Z,101049.19
2023-02-28T10:46:57.835Z,101053.69
2023-02-28T10:49:28.322Z,101060.34
2023-02-28T10:52:01.138Z,101053.84
2023-02-28T10:54:38.798Z,101048.09
2023-02-28T10:57:10.353Z,101041.91
2023-02-28T10:59:38.379Z,101057.19
2023-02-28T11:02:36.052Z,101044.59
2023-02-28T11:05:25.147Z,101046.34
2023-02-28T11:07:55.121Z,101039.56
2023-02-28T11:10:28.998Z,101037.94
2023-02-28T11:13:02.696Z,101036.75
2023-02-28T11:16:04.773Z,101039.03
2023-02-28T11:18:48.910Z,101039.63
2023-02-28T11:21:21.648Z,101033.94
2023-02-28T11:23:49.997Z,101025.69
2023-02-28T11:26:42.237Z,101034.63
2023-02-28T11:32:20.341Z,101031.16
2023-02-28T11:35:12.400Z,101032.50
2023-02-28T11:37:58.741Z,101029.50
2023-02-28T11:41:04.495Z,101022.69
2023-02-28T11:43:56.050Z,101030.09
2023-02-28T11:46:57.055Z,101032.06
2023-02-28T11:52:47.955Z,101024.59
2023-02-28T11:56:01.500Z,101007.44
2023-02-28T11:58:40.736Z,101009.44
2023-02-28T12:01:16.409Z,101016.84
2023-02-28T12:04:01.749Z,101005.69
2023-02-28T12:07:00.336Z,100999.63
2023-02-28T12:09:48.113Z,101002.59
2023-02-28T12:12:43.781Z,100993.00
2023-02-28T12:15:46.942Z,100988.53
2023-02-28T12:18:51.645Z,100991.47
2023-02-28T12:21:25.849Z,100989.87
2023-02-28T12:23:59.249Z,100985.19
2023-02-28T12:26:39.885Z,100982.81
2023-02-28T12:29:29.740Z,100984.16
2023-02-28T12:32:27.161Z,100982.09
2023-02-28T12:35:09.775Z,100974.56
2023-02-28T12:37:46.858Z,100975.44
2023-02-28T12:40:18.749Z,100968.03
2023-02-28T12:42:50.674Z,100972.44
2023-02-28T12:45:24.562Z,100972.28
2023-02-28T12:47:58.827Z,100968.59
2023-02-28T12:50:27.343Z,100967.28
2023-02-28T12:53:25.330Z,100968.84
2023-02-28T12:55:58.797Z,100963.16
2023-02-28T12:59:15.958Z,100960.94
2023-02-28T13:01:55.694Z,100956.47
2023-02-28T13:04:51.167Z,100954.12
2023-02-28T13:07:34.196Z,100950.94
2023-02-28T13:20:21.467Z,100939.88
2023-02-28T13:25:34.184Z,100945.22
2023-02-28T13:35:00.736Z,100921.87
2023-02-28T13:37:31.539Z,100921.87
2023-02-28T13:40:11.104Z,100926.41
2023-02-28T13:42:57.055Z,100931.97
2023-02-28T13:45:25.825Z,100929.09
2023-02-28T13:47:56.485Z,100927.31
2023-02-28T13:50:26.934Z,100929.03
2023-02-28T13:53:14.325Z,100930.28
2023-02-28T13:56:04.686Z,100923.97
2023-02-28T13:59:14.335Z,100925.34
2023-02-28T14:02:00.860Z,100918.47
2023-02-28T14:04:51.646Z,100918.66
2023-02-28T14:10:09.471Z,100916.31
2023-02-28T14:13:12.146Z,100916.31
2023-02-28T14:15:42.723Z,100921.69
2023-02-28T14:18:22.683Z,100915.22
2023-02-28T14:20:55.049Z,100915.91
2023-02-28T14:24:14.183Z,100916.84
2023-02-28T14:27:07.311Z,100901.53
2023-02-28T14:30:00.624Z,100907.03
2023-02-28T14:33:09.547Z,100902.09
2023-02-28T14:38:53.150Z,100907.84
2023-02-28T14:41:30.084Z,100900.38
2023-02-28T14:46:41.416Z,100896.34
2023-02-28T14:49:22.245Z,100906.09
2023-02-28T14:57:02.147Z,100906.62
2023-02-28T15:03:40.559Z,100901.41
2023-02-28T15:10:25.657Z,100900.09
2023-02-28T15:13:46.170Z,100904.28
2023-02-28T15:19:50.337Z,100910.50
2023-02-28T15:47:28.552Z,100889.00
2023-02-28T16:09:57.386Z,100898.00
2023-02-28T16:15:45.856Z,100915.53
2023-02-28T16:19:56.673Z,100916.94
2023-02-28T16:36:50.288Z,100919.75
2023-02-28T16:43:37.301Z,100928.56
2023-02-28T16:46:06.581Z,100928.56
2023-02-28T16:48:34.208Z,100929.88
2023-02-28T16:51:01.716Z,100936.09
2023-02-28T16:53:29.460Z,100947.69
2023-02-28T16:55:56.981Z,100944.69
2023-02-28T16:58:26.606Z,100943.28
2023-02-28T17:00:54.488Z,100946.63
2023-02-28T17:03:32.750Z,100950.84
2023-02-28T17:06:01.562Z,100955.06
2023-02-28T17:08:30.438Z,100950.66
2023-02-28T17:10:57.956Z,100945.56
2023-02-28T17:13:25.832Z,100954.94
2023-02-28T17:15:53.474Z,100956.72
2023-02-28T17:18:22.282Z,100960.81
2023-02-28T17:20:50.470Z,100956.97
2023-02-28T17:23:18.154Z,100960.53
2023-02-28T17:25:57.506Z,100962.00
2023-02-28T17:28:25.896Z,100956.75
2023-02-28T17:30:53.513Z,100957.97
2023-02-28T17:33:21.152Z,100955.22
2023-02-28T17:35:48.996Z,100954.69
2023-02-28T17:38:18.419Z,100951.84
2023-02-28T17:40:46.032Z,100950.09
2023-02-28T17:43:13.971Z,100961.09
2023-02-28T17:45:42.132Z,100963.38
2023-02-28T17:48:11.581Z,100961.03
2023-02-28T17:50:39.327Z,100962.37
2023-02-28T17:53:06.778Z,100958.38
2023-02-28T17:55:35.468Z,100961.06
2023-02-28T17:58:04.334Z,100961.97
2023-02-28T18:00:34.511Z,100966.91
2023-02-28T18:03:02.420Z,100969.91
2023-02-28T18:05:30.287Z,100970.19
2023-02-28T18:07:57.757Z,100975.78
2023-02-28T18:10:25.731Z,100973.44
2023-02-28T18:12:53.196Z,100976.56
2023-02-28T18:15:22.246Z,100974.03
2023-02-28T18:17:50.745Z,100981.12
2023-02-28T18:20:19.123Z,100982.84
2023-02-28T18:22:47.659Z,100971.63
2023-02-28T18:25:17.228Z,100979.09
2023-02-28T18:27:54.316Z,100987.25
2023-02-28T18:30:22.985Z,100981.91
2023-02-28T18:32:50.465Z,100978.28
2023-02-28T18:35:34.778Z,100983.91
2023-02-28T18:38:15.199Z,100979.03
2023-02-28T18:40:43.514Z,100980.59
2023-02-28T18:43:11.338Z,100978.44
2023-02-28T18:45:39.239Z,100981.84
2023-02-28T18:48:06.648Z,100985.47
2023-02-28T18:50:34.412Z,100980.13
2023-02-28T18:53:03.405Z,100973.06
2023-02-28T18:55:34.243Z,100978.44
2023-02-28T18:58:02.364Z,100975.63
2023-02-28T19:01:00.683Z,100971.00
2023-02-28T19:05:15.199Z,100980.69
2023-02-28T19:20:30.860Z,100970.38
2023-02-28T19:23:00.582Z,100973.19
2023-02-28T19:25:29.601Z,100978.41
2023-02-28T19:34:39.307Z,100973.13
2023-02-28T19:41:04.574Z,100972.31
2023-02-28T19:43:34.915Z,100972.31
2023-02-28T19:46:03.320Z,100976.66
2023-02-28T20:07:59.511Z,100977.00
2023-02-28T20:13:28.085Z,100983.38
2023-02-28T20:17:43.142Z,100971.03
2023-02-28T20:20:11.787Z,100979.00
2023-02-28T20:22:39.719Z,100975.31
2023-02-28T20:25:08.182Z,100979.75
2023-02-28T20:27:36.079Z,100970.91
2023-02-28T20:30:04.837Z,100979.69
2023-02-28T20:32:33.258Z,100972.47
2023-02-28T20:35:01.081Z,100975.16
2023-02-28T20:37:28.872Z,100965.66
2023-02-28T20:39:56.323Z,100972.28
2023-02-28T20:42:24.236Z,100977.25
2023-02-28T20:44:51.623Z,100971.31
2023-02-28T20:47:19.110Z,100970.22
2023-02-28T20:49:46.788Z,100969.31
2023-02-28T20:52:14.195Z,100974.59
2023-02-28T20:54:41.675Z,100974.75
2023-02-28T20:57:09.504Z,100974.75
2023-02-28T20:59:38.867Z,100980.00
2023-02-28T21:02:07.099Z,100974.75
2023-02-28T21:04:34.873Z,100982.59
2023-02-28T21:07:02.327Z,100973.88
2023-02-28T21:09:29.870Z,100976.56
2023-02-28T21:11:57.603Z,100974.00
2023-02-28T21:14:26.077Z,100971.25
2023-02-28T21:16:53.548Z,100971.06
2023-02-28T21:19:21.889Z,100966.66
2023-02-28T21:21:49.560Z,100965.91
2023-02-28T21:24:19.301Z,100966.06
2023-02-28T21:26:47.793Z,100970.25
2023-02-28T21:29:16.033Z,100966.75
2023-02-28T21:31:43.489Z,100966.00
2023-02-28T21:34:12.187Z,100956.41
2023-02-28T21:36:42.760Z,100957.12
2023-02-28T21:39:25.558Z,100952.50
2023-02-28T21:41:53.932Z,100959.75
2023-02-28T21:44:23.017Z,100963.13
2023-02-28T21:46:55.209Z,100964.06
2023-02-28T21:49:23.289Z,100956.09
2023-02-28T21:51:50.657Z,100965.66
2023-02-28T21:54:18.374Z,100960.34
2023-02-28T21:56:46.285Z,100962.97
2023-02-28T21:59:13.747Z,100952.72
2023-02-28T22:01:44.221Z,100957.03
2023-02-28T22:04:21.196Z,100948.28
2023-02-28T22:06:53.766Z,100955.22
2023-02-28T22:09:21.660Z,100955.91
2023-02-28T22:11:49.537Z,100957.94
2023-02-28T22:14:17.344Z,100960.56
2023-02-28T22:16:51.920Z,100962.28
2023-02-28T22:19:21.194Z,100963.97
2023-02-28T22:21:50.337Z,100960.53
2023-02-28T22:24:20.901Z,100961.25
2023-02-28T22:26:50.554Z,100970.94
2023-02-28T22:29:18.093Z,100972.91
2023-02-28T22:31:45.744Z,100962.87
2023-02-28T22:34:13.744Z,100962.75
2023-02-28T22:36:42.259Z,100958.16
2023-02-28T22:39:10.814Z,100961.94
2023-02-28T22:41:39.666Z,100961.41
2023-02-28T22:44:07.684Z,100961.38
2023-02-28T22:46:36.315Z,100965.91
2023-02-28T22:49:05.407Z,100958.87
2023-02-28T22:51:33.242Z,100958.97
2023-02-28T22:54:00.853Z,100956.41
2023-02-28T22:56:30.321Z,100957.12
2023-02-28T22:58:59.859Z,100957.00
2023-02-28T23:01:30.831Z,100962.47
2023-02-28T23:03:58.951Z,100958.97
2023-02-28T23:06:32.544Z,100954.94
2023-02-28T23:09:03.602Z,100956.69
2023-02-28T23:11:37.115Z,100954.53
2023-02-28T23:14:05.775Z,100952.56
2023-02-28T23:16:40.929Z,100955.37
2023-02-28T23:19:12.216Z,100947.28
2023-02-28T23:21:40.336Z,100953.25
2023-02-28T23:24:11.886Z,100953.53
2023-02-28T23:26:43.800Z,100945.06
2023-02-28T23:29:12.679Z,100944.19
2023-02-28T23:31:40.987Z,100942.31
2023-02-28T23:34:09.454Z,100946.75
2023-02-28T23:36:39.133Z,100944.97
2023-02-28T23:39:06.966Z,100941.56
2023-02-28T23:41:34.574Z,100945.13
2023-02-28T23:44:02.317Z,100946.81
2023-02-28T23:46:30.387Z,100948.28
2023-02-28T23:48:59.097Z,100949.19
2023-02-28T23:51:26.595Z,100951.03
2023-02-28T23:53:54.433Z,100944.12
2023-02-28T23:56:23.705Z,100958.19
2023-02-28T23:58:52.070Z,100955.03
